createdAt,value
2023-03-12T07:26:39.409Z,95.74
2023-03-12T07:27:39.352Z,95.78
2023-03-12T07:28:39.318Z,95.68
2023-03-12T07:29:39.287Z,95.84
2023-03-12T07:30:39.278Z,95.84
2023-03-12T07:31:39.345Z,95.89
2023-03-12T07:32:39.281Z,95.95
2023-03-12T07:33:39.374Z,95.84
2023-03-12T07:34:39.163Z,95.64
2023-03-12T07:35:39.298Z,95.95
2023-03-12T07:36:39.281Z,95.53
2023-03-12T07:37:39.088Z,95.43
2023-03-12T07:38:39.086Z,95.53
2023-03-12T07:39:39.137Z,95.01
2023-03-12T07:40:39.073Z,95.32
2023-03-12T07:41:39.036Z,95.32
2023-03-12T07:42:38.977Z,95.01
2023-03-12T07:43:38.967Z,95.21
2023-03-12T07:44:38.952Z,95.01
2023-03-12T07:45:38.983Z,95.01
2023-03-12T07:46:38.942Z,94.90
2023-03-12T07:47:39.061Z,95.11
2023-03-12T07:48:38.846Z,94.59
2023-03-12T07:49:38.899Z,94.27
2023-03-12T07:50:38.787Z,94.23
2023-03-12T07:51:38.793Z,94.34
2023-03-12T07:52:38.745Z,93.92
2023-03-12T07:53:38.730Z,93.88
2023-03-12T07:54:38.721Z,93.98
2023-03-12T07:55:38.770Z,93.67
2023-03-12T07:56:38.878Z,93.25
2023-03-12T07:57:38.661Z,92.94
2023-03-12T07:58:38.849Z,93.15
2023-03-12T07:59:38.596Z,93.04
2023-03-12T08:00:38.572Z,92.83
2023-03-12T08:01:38.736Z,93.04
2023-03-12T08:02:38.659Z,93.10
2023-03-12T08:03:38.731Z,93.00
2023-03-12T08:04:38.659Z,92.16
2023-03-12T08:05:38.528Z,92.58
2023-03-12T08:06:38.516Z,92.47
2023-03-12T08:07:38.471Z,92.47
2023-03-12T08:08:38.534Z,92.58
2023-03-12T08:09:38.383Z,91.64
2023-03-12T08:10:38.494Z,91.64
2023-03-12T08:11:38.341Z,91.71
2023-03-12T08:12:38.320Z,91.08
2023-03-12T08:13:38.351Z,91.29
2023-03-12T08:14:38.362Z,91.29
2023-03-12T08:15:38.263Z,91.08
2023-03-12T08:16:38.287Z,90.97
2023-03-12T08:17:38.229Z,90.77
2023-03-12T08:18:38.200Z,90.66
2023-03-12T08:19:38.209Z,90.72
2023-03-12T08:20:38.158Z,90.72
2023-03-12T08:21:38.154Z,90.72
2023-03-12T08:22:38.123Z,90.83
2023-03-12T08:23:38.100Z,90.83
2023-03-12T08:24:38.075Z,90.62
2023-03-12T08:25:38.199Z,90.83
2023-03-12T08:26:38.032Z,90.72
2023-03-12T08:27:38.019Z,90.35
2023-03-12T08:28:38.004Z,90.41
2023-03-12T08:29:37.983Z,89.06
2023-03-12T08:30:38.034Z,90.25
2023-03-12T08:31:38.056Z,90.72
2023-03-12T08:32:38.009Z,90.20
2023-03-12T08:33:37.890Z,91.35
2023-03-12T08:34:37.901Z,91.46
2023-03-12T08:35:37.882Z,90.83
2023-03-12T08:36:37.869Z,90.93
2023-03-12T08:37:37.809Z,90.62
2023-03-12T08:38:37.807Z,90.89
2023-03-12T08:39:37.786Z,90.89
2023-03-12T08:40:37.751Z,88.85
2023-03-12T08:41:37.760Z,88.01
2023-03-12T08:42:37.711Z,88.22
2023-03-12T08:43:37.690Z,89.06
2023-03-12T08:44:37.711Z,89.75
2023-03-12T08:45:37.734Z,89.32
2023-03-12T08:46:37.654Z,89.85
2023-03-12T08:47:37.616Z,89.75
2023-03-12T08:48:37.622Z,89.75
2023-03-12T08:49:37.575Z,89.50
2023-03-12T08:50:37.566Z,89.81
2023-03-12T08:51:37.537Z,90.01
2023-03-12T08:52:37.515Z,90.44
2023-03-12T08:53:37.545Z,90.12
2023-03-12T08:54:37.502Z,89.70
2023-03-12T08:55:37.453Z,89.25
2023-03-12T08:56:37.439Z,89.87
2023-03-12T08:57:37.415Z,89.56
2023-03-12T08:58:37.396Z,90.08
2023-03-12T08:59:37.408Z,89.98
2023-03-12T09:00:37.355Z,89.66
2023-03-12T09:01:37.339Z,89.14
2023-03-12T09:02:37.325Z,89.76
2023-03-12T09:03:37.299Z,89.25
2023-03-12T09:04:37.467Z,88.93
2023-03-12T09:05:37.261Z,89.25
2023-03-12T09:06:37.238Z,89.00
2023-03-12T09:07:37.226Z,89.20
2023-03-12T09:08:37.197Z,89.73
2023-03-12T09:09:37.181Z,89.62
2023-03-12T09:10:37.194Z,89.00
2023-03-12T09:11:37.139Z,88.37
2023-03-12T09:12:37.127Z,88.58
2023-03-12T09:13:58.111Z,88.37
2023-03-12T09:15:04.610Z,87.75
2023-03-12T09:15:37.089Z,87.85
2023-03-12T09:16:37.099Z,87.65
2023-03-12T09:17:37.037Z,87.43
2023-03-12T09:18:39.923Z,87.85
2023-03-12T09:19:36.983Z,87.23
2023-03-12T09:20:36.989Z,87.85
2023-03-12T09:21:36.943Z,88.48
2023-03-12T09:22:36.968Z,88.10
2023-03-12T09:23:36.904Z,88.27
2023-03-12T09:24:36.891Z,88.27
2023-03-12T09:25:36.888Z,88.17
2023-03-12T09:26:36.846Z,88.20
2023-03-12T09:27:36.826Z,88.62
2023-03-12T09:28:36.827Z,88.89
2023-03-12T09:29:43.775Z,89.25
2023-03-12T09:30:36.793Z,89.73
2023-03-12T09:31:36.776Z,89.56
2023-03-12T09:32:36.743Z,89.98
2023-03-12T09:33:36.776Z,90.50
2023-03-12T09:34:36.698Z,90.14
2023-03-12T09:35:36.705Z,90.39
2023-03-12T09:36:36.641Z,90.60
2023-03-12T09:37:36.629Z,90.70
2023-03-12T09:38:36.640Z,91.22
2023-03-12T09:39:36.581Z,90.91
2023-03-12T09:40:36.562Z,91.33
2023-03-12T09:41:36.546Z,92.27
2023-03-12T09:42:36.521Z,92.22
2023-03-12T09:43:36.532Z,92.16
2023-03-12T09:44:36.487Z,92.68
2023-03-12T09:45:36.465Z,92.79
2023-03-12T09:46:36.440Z,92.89
2023-03-12T09:47:36.427Z,93.20
2023-03-12T09:48:36.436Z,93.20
2023-03-12T09:49:36.400Z,93.52
2023-03-12T09:50:36.399Z,93.73
2023-03-12T09:51:36.364Z,93.62
2023-03-12T09:52:36.321Z,93.31
2023-03-12T09:53:36.326Z,93.52
2023-03-12T09:54:36.309Z,93.83
2023-03-12T09:55:36.292Z,93.83
2023-03-12T09:56:36.278Z,94.14
2023-03-12T09:57:36.222Z,94.14
2023-03-12T09:58:36.206Z,94.39
2023-03-12T09:59:36.189Z,94.76
2023-03-12T10:00:36.214Z,94.76
2023-03-12T10:01:36.150Z,94.66
2023-03-12T10:02:36.127Z,94.98
2023-03-12T10:03:36.182Z,95.08
2023-03-12T10:04:45.482Z,95.18
2023-03-12T10:05:36.074Z,95.18
2023-03-12T10:06:36.093Z,95.39
2023-03-12T10:07:36.113Z,95.14
2023-03-12T10:08:36.015Z,95.39
2023-03-12T10:09:35.987Z,95.45
2023-03-12T10:10:35.969Z,95.45
2023-03-12T10:11:35.982Z,95.25
2023-03-12T10:12:35.931Z,95.66
2023-03-12T10:13:35.913Z,95.66
2023-03-12T10:14:35.892Z,95.60
2023-03-12T10:15:35.942Z,95.60
2023-03-12T10:16:35.857Z,95.60
2023-03-12T10:17:35.864Z,95.87
2023-03-12T10:18:35.948Z,95.76
2023-03-12T10:19:35.797Z,95.87
2023-03-12T10:20:35.772Z,95.87
2023-03-12T10:21:35.798Z,96.12
2023-03-12T10:22:35.747Z,96.33
2023-03-12T10:23:35.743Z,96.28
2023-03-12T10:24:35.694Z,96.80
2023-03-12T10:25:35.677Z,96.64
2023-03-12T10:26:35.655Z,96.80
2023-03-12T10:27:35.639Z,96.53
2023-03-12T10:28:35.642Z,96.39
2023-03-12T10:29:35.625Z,96.75
2023-03-12T10:30:35.578Z,96.95
2023-03-12T10:31:35.557Z,97.06
2023-03-12T10:32:35.554Z,97.27
2023-03-12T10:33:35.516Z,97.68
2023-03-12T10:34:35.599Z,97.78
2023-03-12T10:35:35.525Z,97.58
2023-03-12T10:36:35.462Z,97.22
2023-03-12T10:37:35.437Z,98.20
2023-03-12T10:38:35.513Z,98.47
2023-03-12T10:39:35.398Z,98.31
2023-03-12T10:40:35.381Z,97.95
2023-03-12T10:41:35.374Z,97.85
2023-03-12T10:42:35.338Z,97.68
2023-03-12T10:43:35.318Z,98.20
2023-03-12T10:44:35.327Z,98.16
2023-03-12T10:45:35.279Z,98.41
2023-03-12T10:46:35.305Z,98.62
2023-03-12T10:47:35.266Z,98.26
2023-03-12T10:48:35.225Z,99.20
2023-03-12T10:49:35.198Z,98.93
2023-03-12T10:50:35.186Z,99.14
2023-03-12T10:51:35.166Z,99.82
2023-03-12T10:52:35.184Z,99.10
2023-03-12T10:53:35.121Z,99.24
2023-03-12T10:54:35.113Z,99.35
2023-03-12T10:55:35.092Z,99.99
2023-03-12T10:56:35.061Z,99.87
2023-03-12T10:57:35.063Z,99.24
2023-03-12T10:58:35.028Z,99.66
2023-03-12T10:59:35.002Z,99.45
2023-03-12T11:00:34.986Z,99.99
2023-03-12T11:01:35.010Z,99.87
2023-03-12T11:02:34.969Z,99.99
2023-03-12T11:03:34.936Z,99.99
2023-03-12T11:04:34.916Z,99.99
2023-03-12T11:05:34.948Z,99.99
2023-03-12T11:06:34.862Z,99.99
2023-03-12T11:07:34.845Z,99.99
2023-03-12T11:08:34.825Z,99.99
2023-03-12T11:09:34.807Z,99.99
2023-03-12T11:10:34.816Z,99.99
2023-03-12T11:11:34.762Z,99.99
2023-03-12T11:12:34.785Z,99.99
2023-03-12T11:13:34.735Z,99.99
2023-03-12T11:14:34.713Z,99.99
2023-03-12T11:15:34.687Z,99.99
2023-03-12T11:16:34.766Z,99.99
2023-03-12T11:17:34.673Z,99.99
2023-03-12T11:18:34.630Z,99.99
2023-03-12T11:19:34.617Z,99.99
2023-03-12T11:20:34.689Z,99.99
2023-03-12T11:21:34.563Z,99.99
2023-03-12T11:22:34.600Z,99.99
2023-03-12T11:23:34.531Z,99.99
2023-03-12T11:24:34.501Z,99.99
2023-03-12T11:25:34.480Z,99.99
2023-03-12T11:26:34.471Z,99.99
2023-03-12T11:27:34.442Z,99.99
2023-03-12T11:28:34.452Z,99.99
2023-03-12T11:29:34.412Z,99.99
2023-03-12T11:30:34.436Z,99.99
2023-03-12T11:31:34.454Z,99.99
2023-03-12T11:32:34.392Z,99.99
2023-03-12T11:33:34.321Z,99.99
2023-03-12T11:34:34.308Z,99.99
2023-03-12T11:35:34.329Z,99.99
2023-03-12T11:36:34.263Z,99.99
2023-03-12T11:37:34.243Z,99.99
2023-03-12T11:38:34.221Z,99.99
2023-03-12T11:39:34.203Z,99.99
2023-03-12T11:40:34.190Z,99.99
2023-03-12T11:41:34.164Z,99.99
2023-03-12T11:42:34.158Z,99.99
2023-03-12T11:43:43.237Z,99.99
2023-03-12T11:44:34.152Z,99.99
2023-03-12T11:45:34.087Z,99.99
2023-03-12T11:46:34.094Z,99.99
2023-03-12T11:47:34.107Z,99.99
2023-03-12T11:48:34.060Z,99.99
2023-03-12T11:49:34.008Z,99.99
2023-03-12T11:50:33.990Z,99.99
2023-03-12T11:51:33.969Z,99.99
2023-03-12T11:52:33.952Z,99.99
2023-03-12T11:53:33.925Z,99.99
2023-03-12T11:54:33.904Z,99.99
2023-03-12T11:55:33.932Z,99.99
2023-03-12T11:56:33.868Z,99.99
2023-03-12T11:57:33.843Z,99.99
2023-03-12T11:58:33.833Z,99.99
2023-03-12T11:59:33.805Z,99.99
2023-03-12T12:00:33.787Z,99.99
2023-03-12T12:01:33.768Z,99.99
2023-03-12T12:02:33.773Z,99.99
2023-03-12T12:03:33.824Z,99.99
2023-03-12T12:04:33.710Z,99.99
2023-03-12T12:05:33.706Z,99.99
2023-03-12T12:06:33.694Z,99.99
2023-03-12T12:07:33.647Z,99.99
2023-03-12T12:08:33.637Z,99.99
2023-03-12T12:09:33.620Z,99.99
2023-03-12T12:10:33.596Z,99.99
2023-03-12T12:11:33.579Z,99.99
2023-03-12T12:12:33.550Z,99.99
2023-03-12T12:13:33.531Z,99.99
2023-03-12T12:14:33.545Z,99.99
2023-03-12T12:15:33.493Z,99.99
2023-03-12T12:16:33.493Z,99.99
2023-03-12T12:17:33.455Z,99.99
2023-03-12T12:18:33.445Z,99.99
2023-03-12T12:19:33.413Z,99.99
2023-03-12T12:20:33.393Z,99.99
2023-03-12T12:21:33.371Z,99.99
2023-03-12T12:22:33.424Z,99.99
2023-03-12T12:23:33.366Z,99.99
2023-03-12T12:24:33.366Z,99.99
2023-03-12T12:25:33.347Z,99.99
2023-03-12T12:26:33.275Z,99.99
2023-03-12T12:27:33.255Z,99.99
2023-03-12T12:28:33.262Z,99.99
2023-03-12T12:29:35.601Z,99.99
2023-03-12T12:30:33.205Z,99.99
2023-03-12T12:31:33.205Z,99.99
2023-03-12T12:32:33.196Z,99.99
2023-03-12T12:33:33.175Z,99.99
2023-03-12T12:34:33.118Z,99.99
2023-03-12T12:35:33.179Z,99.99
2023-03-12T12:36:33.077Z,99.99
2023-03-12T12:37:33.059Z,99.99
2023-03-12T12:38:33.042Z,99.99
2023-03-12T12:39:33.044Z,99.99
2023-03-12T12:40:33.004Z,99.99
2023-03-12T12:41:32.976Z,99.99
2023-03-12T12:42:32.961Z,99.99
2023-03-12T12:43:32.943Z,99.99
2023-03-12T12:44:32.948Z,99.99
2023-03-12T12:45:32.909Z,99.99
2023-03-12T12:46:32.901Z,99.99
2023-03-12T12:47:32.865Z,99.99
2023-03-12T12:48:32.852Z,99.99
2023-03-12T12:49:32.851Z,99.99
2023-03-12T12:50:32.813Z,99.99
2023-03-12T12:51:32.786Z,99.99
2023-03-12T12:52:32.763Z,99.99
2023-03-12T12:53:32.742Z,99.99
2023-03-12T12:54:32.752Z,99.99
2023-03-12T12:55:32.777Z,99.99
2023-03-12T12:56:32.696Z,99.99
2023-03-12T12:57:32.686Z,99.99
2023-03-12T12:58:32.676Z,99.99
2023-03-12T12:59:32.626Z,99.99
2023-03-12T13:00:32.616Z,99.99
2023-03-12T13:01:32.669Z,99.99
2023-03-12T13:02:32.580Z,99.99
2023-03-12T13:03:32.553Z,99.99
2023-03-12T13:04:32.622Z,99.99
2023-03-12T13:05:32.544Z,99.99
2023-03-12T13:06:32.493Z,99.99
2023-03-12T13:07:32.475Z,99.99
2023-03-12T13:08:32.470Z,99.99
2023-03-12T13:09:32.435Z,99.99
2023-03-12T13:10:32.466Z,99.99
2023-03-12T13:11:32.400Z,99.99
2023-03-12T13:12:32.383Z,99.99
2023-03-12T13:13:32.358Z,99.99
2023-03-12T13:14:32.343Z,99.99
2023-03-12T13:15:32.326Z,99.99
2023-03-12T13:16:32.334Z,99.99
2023-03-12T13:17:32.281Z,99.99
2023-03-12T13:18:32.376Z,99.99
2023-03-12T13:19:32.243Z,99.99
2023-03-12T13:20:32.283Z,99.99
2023-03-12T13:21:32.222Z,99.99
2023-03-12T13:22:32.188Z,99.99
2023-03-12T13:23:32.172Z,99.99
2023-03-12T13:24:32.177Z,99.99
2023-03-12T13:25:32.164Z,99.99
2023-03-12T13:26:32.202Z,99.99
2023-03-12T13:27:32.093Z,99.99
2023-03-12T13:28:32.079Z,99.99
2023-03-12T13:29:32.077Z,99.99
2023-03-12T13:30:32.038Z,99.99
2023-03-12T13:31:32.082Z,99.99
2023-03-12T13:32:32.061Z,99.99
2023-03-12T13:33:31.976Z,99.99
2023-03-12T13:34:32.056Z,99.99
2023-03-12T13:35:31.974Z,99.99
2023-03-12T13:36:31.924Z,99.99
2023-03-12T13:37:31.935Z,99.99
2023-03-12T13:38:31.926Z,99.99
2023-03-12T13:39:31.915Z,99.99
2023-03-12T13:40:31.847Z,99.99
2023-03-12T13:41:31.988Z,99.99
2023-03-12T13:42:31.801Z,99.99
2023-03-12T13:43:31.782Z,99.99
2023-03-12T13:44:31.770Z,99.99
2023-03-12T13:45:31.829Z,99.99
2023-03-12T13:46:31.778Z,99.99
2023-03-12T13:47:31.714Z,99.99
2023-03-12T13:48:31.695Z,99.99
2023-03-12T13:49:31.687Z,99.99
2023-03-12T13:50:31.678Z,99.99
2023-03-12T13:51:31.635Z,99.99
2023-03-12T13:52:31.626Z,99.99
2023-03-12T13:53:31.588Z,99.99
2023-03-12T13:54:31.574Z,99.99
2023-03-12T13:55:31.558Z,99.99
2023-03-12T13:56:31.533Z,99.99
2023-03-12T13:57:31.529Z,99.99
2023-03-12T13:58:31.499Z,99.99
2023-03-12T13:59:31.477Z,99.99
2023-03-12T14:00:31.460Z,99.99
2023-03-12T14:01:31.583Z,99.99
2023-03-12T14:02:31.420Z,99.99
2023-03-12T14:03:31.411Z,99.99
2023-03-12T14:04:31.462Z,99.99
2023-03-12T14:05:31.361Z,99.99
2023-03-12T14:06:31.419Z,99.99
2023-03-12T14:07:31.325Z,99.99
2023-03-12T14:08:31.325Z,99.99
2023-03-12T14:09:31.318Z,99.99
2023-03-12T14:10:31.267Z,99.99
2023-03-12T14:11:31.267Z,99.99
2023-03-12T14:12:31.296Z,99.99
2023-03-12T14:13:31.212Z,99.99
2023-03-12T14:14:31.203Z,99.99
2023-03-12T14:15:31.175Z,99.99
2023-03-12T14:16:31.223Z,99.99
2023-03-12T14:17:31.140Z,99.99
2023-03-12T14:18:31.142Z,99.99
2023-03-12T14:19:31.219Z,99.99
2023-03-12T14:20:31.084Z,99.99
2023-03-12T14:21:31.060Z,99.99
2023-03-12T14:22:31.079Z,99.99
2023-03-12T14:23:31.034Z,99.99
2023-03-12T14:24:31.012Z,99.99
2023-03-12T14:25:30.985Z,99.99
2023-03-12T14:26:30.971Z,99.99
2023-03-12T14:27:30.978Z,99.99
2023-03-12T14:28:30.958Z,99.99
2023-03-12T14:29:30.956Z,99.99
2023-03-12T14:30:30.891Z,99.99
2023-03-12T14:31:30.910Z,99.99
2023-03-12T14:32:30.928Z,99.99
2023-03-12T14:33:30.849Z,99.99
2023-03-12T14:34:30.826Z,99.99
2023-03-12T14:35:30.826Z,99.99
2023-03-12T14:36:30.788Z,99.99
2023-03-12T14:37:30.763Z,99.99
2023-03-12T14:38:30.794Z,99.99
2023-03-12T14:39:30.864Z,99.99
2023-03-12T14:40:30.703Z,99.99
2023-03-12T14:41:30.683Z,99.99
2023-03-12T14:42:30.664Z,99.99
2023-03-12T14:43:30.659Z,99.99
2023-03-12T14:44:30.657Z,99.99
2023-03-12T14:45:30.650Z,99.99
2023-03-12T14:46:30.642Z,99.99
2023-03-12T14:47:30.571Z,99.99
2023-03-12T14:48:30.557Z,99.99
2023-03-12T14:49:30.598Z,99.99
2023-03-12T14:50:30.541Z,99.99
2023-03-12T14:51:30.764Z,99.99
2023-03-12T14:52:30.480Z,99.99
2023-03-12T14:53:30.456Z,99.99
2023-03-12T14:54:30.575Z,99.99
2023-03-12T14:55:30.420Z,99.99
2023-03-12T14:56:30.459Z,99.99
2023-03-12T14:57:30.385Z,99.99
2023-03-12T14:58:30.377Z,99.99
2023-03-12T14:59:30.357Z,99.99
2023-03-12T15:00:30.362Z,99.99
2023-03-12T15:01:30.482Z,99.99
2023-03-12T15:02:30.293Z,99.99
2023-03-12T15:03:30.275Z,99.99
2023-03-12T15:04:30.270Z,99.99
2023-03-12T15:05:30.275Z,99.99
2023-03-12T15:06:30.245Z,99.99
2023-03-12T15:07:30.223Z,99.99
2023-03-12T15:08:30.178Z,99.99
2023-03-12T15:09:30.203Z,99.99
2023-03-12T15:10:30.183Z,99.99
2023-03-12T15:11:30.151Z,99.99
2023-03-12T15:12:30.104Z,99.99
2023-03-12T15:13:30.081Z,99.99
2023-03-12T15:14:30.069Z,99.99
2023-03-12T15:15:30.050Z,99.99
2023-03-12T15:16:30.157Z,99.99
2023-03-12T15:17:30.008Z,99.99
2023-03-12T15:18:29.993Z,99.99
2023-03-12T15:19:30.120Z,99.99
2023-03-12T15:20:29.964Z,99.99
2023-03-12T15:21:29.934Z,99.99
2023-03-12T15:22:29.923Z,99.99
2023-03-12T15:23:30.894Z,99.99
2023-03-12T15:24:29.880Z,99.99
2023-03-12T15:25:29.859Z,99.99
2023-03-12T15:26:29.874Z,99.99
2023-03-12T15:27:29.866Z,99.99
2023-03-12T15:28:29.818Z,99.99
2023-03-12T15:29:29.789Z,99.99
2023-03-12T15:30:29.773Z,99.99
2023-03-12T15:31:29.870Z,99.99
2023-03-12T15:32:29.827Z,99.99
2023-03-12T15:33:29.760Z,99.99
2023-03-12T15:34:29.700Z,99.99
2023-03-12T15:35:29.815Z,99.99
2023-03-12T15:36:29.659Z,99.99
2023-03-12T15:37:29.690Z,99.99
2023-03-12T15:38:29.670Z,99.99
2023-03-12T15:39:29.749Z,99.99
2023-03-12T15:40:29.603Z,99.99
2023-03-12T15:41:29.577Z,99.99
2023-03-12T15:42:29.675Z,99.99
2023-03-12T15:43:29.532Z,99.99
2023-03-12T15:44:29.542Z,99.99
2023-03-12T15:45:29.590Z,99.99
2023-03-12T15:46:29.626Z,99.99
2023-03-12T15:47:29.469Z,99.99
2023-03-12T15:48:29.442Z,99.99
2023-03-12T15:49:29.486Z,99.99
2023-03-12T15:50:29.409Z,99.99
2023-03-12T15:51:29.394Z,99.99
2023-03-12T15:52:29.375Z,99.99
2023-03-12T15:53:29.350Z,99.99
2023-03-12T15:54:29.412Z,99.99
2023-03-12T15:55:29.398Z,99.99
2023-03-12T15:56:29.296Z,99.99
2023-03-12T15:57:29.280Z,99.99
2023-03-12T15:58:29.271Z,99.99
2023-03-12T15:59:29.246Z,99.99
2023-03-12T16:00:29.229Z,99.99
2023-03-12T16:01:29.299Z,99.99
2023-03-12T16:02:29.224Z,99.99
2023-03-12T16:03:29.168Z,99.99
2023-03-12T16:04:29.157Z,99.99
2023-03-12T16:05:29.146Z,99.99
2023-03-12T16:06:29.117Z,99.99
2023-03-12T16:07:29.159Z,99.99
2023-03-12T16:08:29.083Z,99.99
2023-03-12T16:09:29.070Z,99.99
2023-03-12T16:10:29.065Z,99.99
2023-03-12T16:11:29.037Z,99.99
2023-03-12T16:12:29.008Z,99.99
2023-03-12T16:13:28.996Z,99.99
2023-03-12T16:14:28.981Z,99.99
2023-03-12T16:15:28.984Z,99.99
2023-03-12T16:16:28.966Z,99.99
2023-03-12T16:17:28.934Z,99.99
2023-03-12T16:18:28.976Z,99.99
2023-03-12T16:19:28.993Z,99.99
2023-03-12T16:20:28.862Z,99.99
2023-03-12T16:21:28.847Z,99.99
2023-03-12T16:22:28.862Z,99.99
2023-03-12T16:23:28.852Z,99.99
2023-03-12T16:24:28.794Z,99.99
2023-03-12T16:25:28.793Z,99.99
2023-03-12T16:26:28.766Z,99.99
2023-03-12T16:27:32.733Z,99.99
2023-03-12T16:28:28.723Z,99.99
2023-03-12T16:29:28.710Z,99.99
2023-03-12T16:30:28.756Z,99.99
2023-03-12T16:31:28.681Z,99.99
2023-03-12T16:32:28.676Z,99.99
2023-03-12T16:33:28.633Z,99.99
2023-03-12T16:34:28.624Z,99.99
2023-03-12T16:35:28.647Z,99.99
2023-03-12T16:36:28.585Z,99.99
2023-03-12T16:37:28.568Z,99.99
2023-03-12T16:38:28.543Z,99.99
2023-03-12T16:39:28.526Z,99.99
2023-03-12T16:40:33.644Z,99.99
2023-03-12T16:41:28.495Z,99.99
2023-03-12T16:42:28.499Z,99.99
2023-03-12T16:43:28.452Z,99.99
2023-03-12T16:44:28.487Z,99.99
2023-03-12T16:45:28.425Z,99.99
2023-03-12T16:46:28.417Z,99.99
2023-03-12T16:47:28.383Z,99.99
2023-03-12T16:48:28.363Z,99.99
2023-03-12T16:49:28.349Z,99.99
2023-03-12T16:50:28.349Z,99.99
2023-03-12T16:51:28.344Z,99.99
2023-03-12T16:52:28.321Z,99.99
2023-03-12T16:53:28.281Z,99.99
2023-03-12T16:54:28.257Z,99.99
2023-03-12T16:55:28.241Z,99.99
2023-03-12T16:56:28.233Z,99.99
2023-03-12T16:57:28.215Z,99.99
2023-03-12T16:58:28.186Z,99.99
2023-03-12T16:59:28.181Z,99.99
2023-03-12T17:00:28.215Z,99.99
2023-03-12T17:01:28.200Z,99.99
2023-03-12T17:02:28.127Z,99.99
2023-03-12T17:03:28.099Z,99.99
2023-03-12T17:04:28.151Z,99.99
2023-03-12T17:05:28.066Z,99.99
2023-03-12T17:06:28.079Z,99.99
2023-03-12T17:07:28.031Z,99.99
2023-03-12T17:08:28.014Z,99.99
2023-03-12T17:09:28.021Z,99.99
2023-03-12T17:10:27.981Z,99.99
2023-03-12T17:11:27.959Z,99.99
2023-03-12T17:12:27.972Z,99.99
2023-03-12T17:13:27.932Z,99.99
2023-03-12T17:14:27.902Z,99.99
2023-03-12T17:15:27.911Z,99.99
2023-03-12T17:16:27.959Z,99.99
2023-03-12T17:17:27.861Z,99.99
2023-03-12T17:18:27.842Z,99.99
2023-03-12T17:19:27.817Z,99.99
2023-03-12T17:20:27.848Z,99.99
2023-03-12T17:21:28.056Z,99.99
2023-03-12T17:22:27.766Z,99.99
2023-03-12T17:23:27.750Z,99.99
2023-03-12T17:24:27.769Z,99.99
2023-03-12T17:25:27.804Z,99.99
2023-03-12T17:26:27.706Z,99.99
2023-03-12T17:27:27.701Z,99.99
2023-03-12T17:28:27.698Z,99.99
2023-03-12T17:29:27.670Z,99.99
2023-03-12T17:30:27.627Z,99.99
2023-03-12T17:31:27.698Z,99.99
2023-03-12T17:32:27.670Z,99.99
2023-03-12T17:33:27.567Z,99.99
2023-03-12T17:34:27.595Z,99.99
2023-03-12T17:35:27.574Z,99.99
2023-03-12T17:36:27.518Z,99.99
2023-03-12T17:37:27.499Z,99.99
2023-03-12T17:38:27.478Z,99.99
2023-03-12T17:39:27.501Z,99.99
2023-03-12T17:40:27.455Z,99.99
2023-03-12T17:41:27.627Z,99.99
2023-03-12T17:42:27.409Z,99.99
2023-03-12T17:43:27.452Z,99.99
2023-03-12T17:44:27.375Z,99.99
2023-03-12T17:45:27.363Z,99.99
2023-03-12T17:46:27.399Z,99.99
2023-03-12T17:47:28.811Z,99.99
2023-03-12T17:48:27.304Z,99.99
2023-03-12T17:49:27.287Z,99.99
2023-03-12T17:50:27.284Z,99.99
2023-03-12T17:51:27.264Z,99.99
2023-03-12T17:52:27.237Z,99.99
2023-03-12T17:53:27.245Z,99.99
2023-03-12T17:54:27.205Z,99.99
2023-03-12T17:55:27.200Z,99.99
2023-03-12T17:56:27.194Z,99.99
2023-03-12T17:57:27.149Z,99.99
2023-03-12T17:58:27.163Z,99.99
2023-03-12T17:59:27.112Z,99.99
2023-03-12T18:00:27.092Z,99.99
2023-03-12T18:01:27.076Z,99.99
2023-03-12T18:02:27.059Z,99.99
2023-03-12T18:03:27.149Z,99.99
2023-03-12T18:04:27.075Z,99.99
2023-03-12T18:05:27.010Z,99.99
2023-03-12T18:06:26.999Z,99.99
2023-03-12T18:07:26.974Z,99.99
2023-03-12T18:08:26.958Z,99.99
2023-03-12T18:09:26.970Z,99.99
2023-03-12T18:10:26.926Z,99.99
2023-03-12T18:11:26.903Z,99.99
2023-03-12T18:12:26.882Z,99.99
2023-03-12T18:13:26.896Z,99.99
2023-03-12T18:14:26.876Z,99.99
2023-03-12T18:15:26.834Z,99.99
2023-03-12T18:16:26.944Z,99.99
2023-03-12T18:17:26.805Z,99.99
2023-03-12T18:18:26.818Z,99.99
2023-03-12T18:19:26.766Z,99.99
2023-03-12T18:20:37.863Z,99.99
2023-03-12T18:21:26.762Z,99.99
2023-03-12T18:22:26.737Z,99.99
2023-03-12T18:23:26.690Z,99.99
2023-03-12T18:24:26.679Z,99.99
2023-03-12T18:25:26.681Z,99.99
2023-03-12T18:26:26.643Z,99.99
2023-03-12T18:27:26.620Z,99.99
2023-03-12T18:28:26.608Z,99.99
2023-03-12T18:29:26.657Z,99.99
2023-03-12T18:30:26.564Z,99.99
2023-03-12T18:31:26.623Z,99.99
2023-03-12T18:32:26.566Z,99.99
2023-03-12T18:33:26.514Z,99.99
2023-03-12T18:34:26.492Z,99.99
2023-03-12T18:35:26.522Z,99.99
2023-03-12T18:36:26.480Z,99.99
2023-03-12T18:37:26.447Z,99.99
2023-03-12T18:38:26.486Z,99.99
2023-03-12T18:39:26.408Z,99.99
2023-03-12T18:40:26.388Z,99.99
2023-03-12T18:41:26.373Z,99.99
2023-03-12T18:42:26.360Z,99.99
2023-03-12T18:43:26.340Z,99.99
2023-03-12T18:44:26.340Z,99.99
2023-03-12T18:45:26.622Z,99.99
2023-03-12T18:46:26.328Z,99.99
2023-03-12T18:47:26.421Z,99.99
2023-03-12T18:48:26.275Z,99.99
2023-03-12T18:49:26.239Z,99.99
2023-03-12T18:50:26.217Z,99.99
2023-03-12T18:51:26.202Z,99.99
2023-03-12T18:52:26.178Z,99.99
2023-03-12T18:53:26.161Z,99.99
2023-03-12T18:54:26.160Z,99.99
2023-03-12T18:55:26.126Z,99.99
2023-03-12T18:56:26.111Z,99.99
2023-03-12T18:57:26.115Z,99.99
2023-03-12T18:58:26.075Z,99.99
2023-03-12T18:59:26.054Z,99.99
2023-03-12T19:00:26.054Z,99.99
2023-03-12T19:01:26.054Z,99.99
2023-03-12T19:02:26.086Z,99.99
2023-03-12T19:03:26.049Z,99.99
2023-03-12T19:04:26.120Z,99.99
2023-03-12T19:05:25.946Z,99.99
2023-03-12T19:06:25.925Z,99.99
2023-03-12T19:07:25.907Z,99.99
2023-03-12T19:08:25.896Z,99.99
2023-03-12T19:09:25.876Z,99.99
2023-03-12T19:10:25.869Z,99.99
2023-03-12T19:11:26.032Z,99.99
2023-03-12T19:12:25.817Z,99.99
2023-03-12T19:13:25.860Z,99.99
2023-03-12T19:14:25.781Z,99.99
2023-03-12T19:15:25.769Z,99.99
2023-03-12T19:16:25.832Z,99.99
2023-03-12T19:17:25.735Z,99.99
2023-03-12T19:18:25.718Z,99.99
2023-03-12T19:19:25.695Z,99.99
2023-03-12T19:20:25.674Z,99.99
2023-03-12T19:21:25.661Z,99.99
2023-03-12T19:22:25.643Z,99.99
2023-03-12T19:23:25.637Z,99.99
2023-03-12T19:24:25.603Z,99.99
2023-03-12T19:25:25.583Z,99.99
2023-03-12T19:26:25.610Z,99.99
2023-03-12T19:27:25.552Z,99.99
2023-03-12T19:28:25.573Z,99.99
2023-03-12T19:29:25.510Z,99.99
2023-03-12T19:30:25.492Z,99.99
2023-03-12T19:31:25.659Z,99.99
2023-03-12T19:32:33.082Z,99.99
2023-03-12T19:33:25.443Z,99.99
2023-03-12T19:34:25.422Z,99.99
2023-03-12T19:35:25.432Z,99.99
2023-03-12T19:36:25.390Z,99.99
2023-03-12T19:37:25.368Z,99.99
2023-03-12T19:38:25.415Z,99.99
2023-03-12T19:39:25.334Z,99.99
2023-03-12T19:40:25.314Z,99.99
2023-03-12T19:41:25.297Z,99.99
2023-03-12T19:42:25.298Z,99.99
2023-03-12T19:43:25.259Z,99.99
2023-03-12T19:44:25.303Z,99.99
2023-03-12T19:45:25.287Z,99.99
2023-03-12T19:46:25.202Z,99.99
2023-03-12T19:47:25.193Z,99.99
2023-03-12T19:48:25.216Z,99.99
2023-03-12T19:49:25.152Z,99.99
2023-03-12T19:50:25.145Z,99.99
2023-03-12T19:51:25.116Z,99.99
2023-03-12T19:52:25.092Z,99.99
2023-03-12T19:53:25.110Z,99.99
2023-03-12T19:54:25.057Z,99.99
2023-03-12T19:55:25.040Z,99.99
2023-03-12T19:56:25.031Z,99.99
2023-03-12T19:57:25.005Z,99.99
2023-03-12T19:58:25.025Z,99.99
2023-03-12T19:59:24.972Z,99.99
2023-03-12T20:00:24.951Z,99.99
2023-03-12T20:01:24.961Z,99.99
2023-03-12T20:02:25.009Z,99.99
2023-03-12T20:03:24.960Z,99.99
2023-03-12T20:04:24.884Z,99.99
2023-03-12T20:05:24.911Z,99.99
2023-03-12T20:06:24.842Z,99.99
2023-03-12T20:07:24.828Z,99.99
2023-03-12T20:08:24.807Z,99.99
2023-03-12T20:09:24.797Z,99.99
2023-03-12T20:10:24.796Z,99.99
2023-03-12T20:11:24.757Z,99.99
2023-03-12T20:12:24.754Z,99.99
2023-03-12T20:13:24.727Z,99.99
2023-03-12T20:14:24.724Z,99.99
2023-03-12T20:15:24.685Z,99.99
2023-03-12T20:16:24.708Z,99.99
2023-03-12T20:17:24.666Z,99.99
2023-03-12T20:18:24.659Z,99.99